Almeria International Airport


Codes: LEAM/LEI
Name: Almeria International Airport
City: Almeria
Country: Spain
Elevation: 70 ft.
Website:
Wikipedia:

Photos at Almeria International Airport


   Photos courtesy of SpottingLog. You can add your own sightings and photos by signing up for a free trial today.



G-TCDD, 30-Sep-2015
© John Hoey

G-FDZW, 30-Sep-2015
© John Hoey

OO-TCM, 19-Aug-2006
© Oliver Perry

G-EZAN, 05-Aug-2006
© Oliver Perry


Weather at Almeria International Airport


Time (UTC)DescriptionTempratureWindCloud coverageVisibilityPressureHumidity
21-Jun-2024 12:00Clear Sky23°C7 mph, S0%10000m1020hPa73%
21-Jun-2024 15:00Clear Sky24°C7 mph, S0%10000m1020hPa64%
21-Jun-2024 18:00Clear Sky24°C4 mph, S0%10000m1019hPa55%
21-Jun-2024 21:00Clear Sky24°C2 mph, SE0%10000m1021hPa55%
22-Jun-2024 00:00Clear Sky23°C2 mph, NE0%10000m1020hPa56%
22-Jun-2024 03:00Clear Sky22°C2 mph, E0%10000m1019hPa61%
22-Jun-2024 06:00Clear Sky23°C2 mph, E0%10000m1020hPa58%
22-Jun-2024 09:00Clear Sky25°C2 mph, SE0%10000m1020hPa49%
22-Jun-2024 12:00Clear Sky26°C9 mph, S0%10000m1019hPa50%
22-Jun-2024 15:00Clear Sky26°C7 mph, S1%10000m1018hPa54%
22-Jun-2024 18:00Few Clouds24°C2 mph, SW24%10000m1017hPa52%
22-Jun-2024 21:00Overcast Clouds24°C2 mph, S95%10000m1018hPa56%
23-Jun-2024 00:00Overcast Clouds23°C0 mph, N91%10000m1016hPa58%
23-Jun-2024 03:00Broken Clouds23°C4 mph, SW72%10000m1015hPa58%
23-Jun-2024 06:00Overcast Clouds23°C2 mph, NE92%10000m1015hPa59%
23-Jun-2024 09:00Overcast Clouds25°C4 mph, S98%10000m1015hPa47%
23-Jun-2024 12:00Overcast Clouds26°C7 mph, SE100%10000m1014hPa48%
23-Jun-2024 15:00Overcast Clouds26°C7 mph, SE98%10000m1013hPa53%
23-Jun-2024 18:00Overcast Clouds24°C4 mph, SE98%10000m1013hPa59%
23-Jun-2024 21:00Overcast Clouds24°C4 mph, E100%10000m1013hPa60%
24-Jun-2024 00:00Overcast Clouds23°C7 mph, E100%10000m1013hPa63%
24-Jun-2024 03:00Overcast Clouds23°C9 mph, NE91%10000m1012hPa66%
24-Jun-2024 06:00Broken Clouds23°C7 mph, NE79%10000m1012hPa63%
24-Jun-2024 09:00Broken Clouds26°C11 mph, E55%10000m1012hPa48%
24-Jun-2024 12:00Broken Clouds27°C13 mph, SE58%10000m1012hPa52%
24-Jun-2024 15:00Overcast Clouds26°C11 mph, SE88%10000m1011hPa61%
24-Jun-2024 18:00Overcast Clouds24°C7 mph, SE92%10000m1011hPa68%
24-Jun-2024 21:00Overcast Clouds23°C4 mph, E100%10000m1013hPa73%
25-Jun-2024 00:00Overcast Clouds22°C4 mph, E88%10000m1012hPa72%
25-Jun-2024 03:00Few Clouds22°C2 mph, E23%10000m1011hPa74%
25-Jun-2024 06:00Few Clouds22°C2 mph, SE12%10000m1011hPa75%
25-Jun-2024 09:00Clear Sky23°C7 mph, SW0%10000m1012hPa71%
25-Jun-2024 12:00Scattered Clouds24°C11 mph, SW50%10000m1011hPa66%
25-Jun-2024 15:00Overcast Clouds24°C11 mph, SW100%10000m1009hPa68%
25-Jun-2024 18:00Overcast Clouds22°C9 mph, SW98%10000m1008hPa75%
25-Jun-2024 21:00Broken Clouds22°C7 mph, SW56%10000m1009hPa79%
26-Jun-2024 00:00Scattered Clouds21°C4 mph, SW39%10000m1010hPa85%
26-Jun-2024 03:00Broken Clouds21°C2 mph, SW65%10000m1009hPa85%
26-Jun-2024 06:00Scattered Clouds21°C2 mph, SE39%10000m1009hPa81%
26-Jun-2024 09:00Scattered Clouds23°C7 mph, S26%10000m1009hPa71%